San Francisco, California
Traffic Map
Current Weather Conditions
San Francisco, California
Overcast
Overcast
17°
Feels Like: 17°
Wind Chill: 17° Ceiling: 500
Heat Index: 17° Visibility: 9mi
Dew Point: 15° Wind: 14mph
Humidity: 90% Direction: 260° (W)
Pressure: 29.97in Gusts: 0mph
Raw Report DataKSFO 301456Z 26012KT 9SM OVC005 17/15 A2997 RMK AO2 SLP149 T01670150 53004
Traffic Incident Summary
Active as of:
Severity:
Category:
InformationThere was an issue retrieving the traffic information for this location. Please try a different location or try again shortly.
Advertisements
Track Severe Weather on mobile